sensor_id;sensor_type;location;lat;lon;timestamp;P1;durP1;ratioP1;P2;durP2;ratioP2
20649;SDS011;10484;48.736;9.332;2023-02-15T00:00:08;24.53;;;12.10;;
20649;SDS011;10484;48.736;9.332;2023-02-15T00:02:37;22.10;;;11.85;;
20649;SDS011;10484;48.736;9.332;2023-02-15T00:05:04;15.40;;;10.10;;
20649;SDS011;10484;48.736;9.332;2023-02-15T00:07:30;21.30;;;12.17;;
20649;SDS011;10484;48.736;9.332;2023-02-15T00:09:55;22.87;;;11.53;;
20649;SDS011;10484;48.736;9.332;2023-02-15T00:12:21;20.53;;;11.50;;
20649;SDS011;10484;48.736;9.332;2023-02-15T00:14:47;17.87;;;10.73;;
20649;SDS011;10484;48.736;9.332;2023-02-15T00:17:13;21.03;;;11.67;;
20649;SDS011;10484;48.736;9.332;2023-02-15T00:19:38;20.00;;;11.37;;
20649;SDS011;10484;48.736;9.332;2023-02-15T00:22:05;23.35;;;12.00;;
20649;SDS011;10484;48.736;9.332;2023-02-15T00:24:30;20.47;;;12.00;;
20649;SDS011;10484;48.736;9.332;2023-02-15T00:26:56;20.33;;;11.20;;
20649;SDS011;10484;48.736;9.332;2023-02-15T00:29:22;23.17;;;11.17;;
20649;SDS011;10484;48.736;9.332;2023-02-15T00:31:48;19.27;;;11.43;;
20649;SDS011;10484;48.736;9.332;2023-02-15T00:34:18;20.63;;;10.40;;
20649;SDS011;10484;48.736;9.332;2023-02-15T00:36:46;18.98;;;11.95;;
20649;SDS011;10484;48.736;9.332;2023-02-15T00:39:12;22.42;;;12.88;;
20649;SDS011;10484;48.736;9.332;2023-02-15T00:41:38;21.35;;;11.13;;
20649;SDS011;10484;48.736;9.332;2023-02-15T00:44:04;22.57;;;12.13;;
20649;SDS011;10484;48.736;9.332;2023-02-15T00:46:30;18.17;;;12.20;;
20649;SDS011;10484;48.736;9.332;2023-02-15T00:48:56;21.13;;;12.60;;
20649;SDS011;10484;48.736;9.332;2023-02-15T00:51:22;23.43;;;12.20;;
20649;SDS011;10484;48.736;9.332;2023-02-15T00:53:48;25.77;;;13.10;;
20649;SDS011;10484;48.736;9.332;2023-02-15T00:56:14;21.10;;;12.00;;
20649;SDS011;10484;48.736;9.332;2023-02-15T00:58:40;20.70;;;12.20;;
20649;SDS011;10484;48.736;9.332;2023-02-15T01:01:09;25.80;;;11.90;;
20649;SDS011;10484;48.736;9.332;2023-02-15T01:03:37;18.55;;;10.40;;
20649;SDS011;10484;48.736;9.332;2023-02-15T01:06:03;23.33;;;13.83;;
20649;SDS011;10484;48.736;9.332;2023-02-15T01:08:29;21.27;;;10.88;;
20649;SDS011;10484;48.736;9.332;2023-02-15T01:10:56;23.50;;;12.77;;
20649;SDS011;10484;48.736;9.332;2023-02-15T01:13:22;18.43;;;11.20;;
20649;SDS011;10484;48.736;9.332;2023-02-15T01:15:54;22.47;;;13.20;;
20649;SDS011;10484;48.736;9.332;2023-02-15T01:18:20;20.70;;;12.77;;
20649;SDS011;10484;48.736;9.332;2023-02-15T01:20:46;24.52;;;12.82;;
20649;SDS011;10484;48.736;9.332;2023-02-15T01:23:12;22.43;;;11.97;;
20649;SDS011;10484;48.736;9.332;2023-02-15T01:25:38;21.53;;;13.43;;
20649;SDS011;10484;48.736;9.332;2023-02-15T01:28:04;24.90;;;13.80;;
20649;SDS011;10484;48.736;9.332;2023-02-15T01:30:30;26.60;;;13.70;;
20649;SDS011;10484;48.736;9.332;2023-02-15T01:32:56;26.00;;;13.60;;
20649;SDS011;10484;48.736;9.332;2023-02-15T01:35:22;21.52;;;12.70;;
20649;SDS011;10484;48.736;9.332;2023-02-15T01:37:48;21.60;;;11.77;;
20649;SDS011;10484;48.736;9.332;2023-02-15T01:40:15;22.20;;;12.87;;
20649;SDS011;10484;48.736;9.332;2023-02-15T01:42:42;21.25;;;12.35;;
20649;SDS011;10484;48.736;9.332;2023-02-15T01:47:39;25.90;;;13.05;;
20649;SDS011;10484;48.736;9.332;2023-02-15T01:52:49;26.38;;;13.77;;
20649;SDS011;10484;48.736;9.332;2023-02-15T01:55:21;20.42;;;12.52;;
20649;SDS011;10484;48.736;9.332;2023-02-15T01:57:48;17.70;;;12.48;;
20649;SDS011;10484;48.736;9.332;2023-02-15T02:00:16;21.92;;;12.85;;
20649;SDS011;10484;48.736;9.332;2023-02-15T02:02:43;17.85;;;12.20;;
20649;SDS011;10484;48.736;9.332;2023-02-15T02:05:12;19.10;;;11.68;;
20649;SDS011;10484;48.736;9.332;2023-02-15T02:07:38;24.50;;;12.60;;
20649;SDS011;10484;48.736;9.332;2023-02-15T02:10:07;21.10;;;11.70;;
20649;SDS011;10484;48.736;9.332;2023-02-15T02:12:36;23.20;;;13.57;;
20649;SDS011;10484;48.736;9.332;2023-02-15T02:15:04;23.35;;;12.30;;
20649;SDS011;10484;48.736;9.332;2023-02-15T02:20:15;21.60;;;12.75;;
20649;SDS011;10484;48.736;9.332;2023-02-15T02:23:19;24.15;;;12.07;;
20649;SDS011;10484;48.736;9.332;2023-02-15T02:26:01;17.13;;;11.35;;
20649;SDS011;10484;48.736;9.332;2023-02-15T02:28:50;20.80;;;12.90;;
20649;SDS011;10484;48.736;9.332;2023-02-15T02:34:03;21.02;;;12.60;;
20649;SDS011;10484;48.736;9.332;2023-02-15T02:37:19;21.20;;;10.85;;
20649;SDS011;10484;48.736;9.332;2023-02-15T02:42:41;14.68;;;10.13;;
20649;SDS011;10484;48.736;9.332;2023-02-15T02:45:25;19.23;;;10.65;;
20649;SDS011;10484;48.736;9.332;2023-02-15T02:48:00;21.85;;;10.80;;
20649;SDS011;10484;48.736;9.332;2023-02-15T02:50:31;14.70;;;10.20;;
20649;SDS011;10484;48.736;9.332;2023-02-15T02:52:57;21.33;;;10.80;;
20649;SDS011;10484;48.736;9.332;2023-02-15T02:55:31;19.42;;;10.25;;
20649;SDS011;10484;48.736;9.332;2023-02-15T02:58:16;18.95;;;12.18;;
20649;SDS011;10484;48.736;9.332;2023-02-15T03:00:58;17.60;;;10.45;;
20649;SDS011;10484;48.736;9.332;2023-02-15T03:06:15;22.30;;;12.32;;
20649;SDS011;10484;48.736;9.332;2023-02-15T03:08:47;23.02;;;12.40;;
20649;SDS011;10484;48.736;9.332;2023-02-15T03:11:16;21.00;;;11.05;;
20649;SDS011;10484;48.736;9.332;2023-02-15T03:13:42;19.92;;;11.35;;
20649;SDS011;10484;48.736;9.332;2023-02-15T03:16:11;16.42;;;10.80;;
20649;SDS011;10484;48.736;9.332;2023-02-15T03:19:06;20.65;;;11.70;;
20649;SDS011;10484;48.736;9.332;2023-02-15T03:24:22;19.42;;;11.10;;
20649;SDS011;10484;48.736;9.332;2023-02-15T03:26:51;21.50;;;11.77;;
20649;SDS011;10484;48.736;9.332;2023-02-15T03:29:19;19.35;;;11.52;;
20649;SDS011;10484;48.736;9.332;2023-02-15T03:31:48;23.00;;;11.45;;
20649;SDS011;10484;48.736;9.332;2023-02-15T03:34:23;20.85;;;11.80;;
20649;SDS011;10484;48.736;9.332;2023-02-15T03:37:00;20.50;;;12.83;;
20649;SDS011;10484;48.736;9.332;2023-02-15T03:39:44;20.02;;;10.68;;
20649;SDS011;10484;48.736;9.332;2023-02-15T03:42:22;21.20;;;11.38;;
20649;SDS011;10484;48.736;9.332;2023-02-15T03:44:58;16.05;;;9.50;;
20649;SDS011;10484;48.736;9.332;2023-02-15T03:47:30;19.20;;;12.00;;
20649;SDS011;10484;48.736;9.332;2023-02-15T03:50:04;20.88;;;11.35;;
20649;SDS011;10484;48.736;9.332;2023-02-15T03:52:57;22.88;;;11.57;;
20649;SDS011;10484;48.736;9.332;2023-02-15T03:55:25;21.27;;;11.60;;
20649;SDS011;10484;48.736;9.332;2023-02-15T03:57:51;17.35;;;11.15;;
20649;SDS011;10484;48.736;9.332;2023-02-15T04:00:37;17.42;;;11.52;;
20649;SDS011;10484;48.736;9.332;2023-02-15T04:06:01;21.05;;;11.90;;
20649;SDS011;10484;48.736;9.332;2023-02-15T04:08:28;22.00;;;11.35;;
20649;SDS011;10484;48.736;9.332;2023-02-15T04:11:12;17.45;;;11.55;;
20649;SDS011;10484;48.736;9.332;2023-02-15T04:13:38;18.03;;;10.20;;
20649;SDS011;10484;48.736;9.332;2023-02-15T04:16:04;18.75;;;11.48;;
20649;SDS011;10484;48.736;9.332;2023-02-15T04:18:37;20.90;;;11.80;;
20649;SDS011;10484;48.736;9.332;2023-02-15T04:21:24;21.63;;;12.00;;
20649;SDS011;10484;48.736;9.332;2023-02-15T04:24:10;18.13;;;11.73;;
20649;SDS011;10484;48.736;9.332;2023-02-15T04:26:54;18.27;;;11.25;;
20649;SDS011;10484;48.736;9.332;2023-02-15T04:29:23;20.90;;;12.02;;
20649;SDS011;10484;48.736;9.332;2023-02-15T04:31:50;20.30;;;11.30;;
20649;SDS011;10484;48.736;9.332;2023-02-15T04:34:17;21.60;;;11.70;;
20649;SDS011;10484;48.736;9.332;2023-02-15T04:36:43;18.10;;;12.53;;
20649;SDS011;10484;48.736;9.332;2023-02-15T04:39:11;17.83;;;12.10;;
20649;SDS011;10484;48.736;9.332;2023-02-15T04:41:38;20.13;;;12.07;;
20649;SDS011;10484;48.736;9.332;2023-02-15T04:44:04;22.43;;;12.10;;
20649;SDS011;10484;48.736;9.332;2023-02-15T04:46:30;20.27;;;11.93;;
20649;SDS011;10484;48.736;9.332;2023-02-15T04:48:55;19.13;;;12.93;;
20649;SDS011;10484;48.736;9.332;2023-02-15T04:51:21;25.97;;;13.37;;
20649;SDS011;10484;48.736;9.332;2023-02-15T04:53:47;18.47;;;11.00;;
20649;SDS011;10484;48.736;9.332;2023-02-15T04:56:13;20.60;;;12.20;;
20649;SDS011;10484;48.736;9.332;2023-02-15T04:58:38;21.40;;;11.57;;
20649;SDS011;10484;48.736;9.332;2023-02-15T05:01:07;18.40;;;12.40;;
20649;SDS011;10484;48.736;9.332;2023-02-15T05:03:33;20.05;;;11.77;;
20649;SDS011;10484;48.736;9.332;2023-02-15T05:05:59;22.80;;;13.50;;
20649;SDS011;10484;48.736;9.332;2023-02-15T05:08:24;20.23;;;11.20;;
20649;SDS011;10484;48.736;9.332;2023-02-15T05:10:50;25.13;;;13.23;;
20649;SDS011;10484;48.736;9.332;2023-02-15T05:13:16;23.30;;;13.87;;
20649;SDS011;10484;48.736;9.332;2023-02-15T05:15:45;29.63;;;14.07;;
20649;SDS011;10484;48.736;9.332;2023-02-15T05:18:15;23.98;;;14.00;;
20649;SDS011;10484;48.736;9.332;2023-02-15T05:20:42;24.13;;;14.60;;
20649;SDS011;10484;48.736;9.332;2023-02-15T05:23:07;19.08;;;12.00;;
20649;SDS011;10484;48.736;9.332;2023-02-15T05:25:33;22.13;;;12.80;;
20649;SDS011;10484;48.736;9.332;2023-02-15T05:28:17;23.90;;;15.32;;
20649;SDS011;10484;48.736;9.332;2023-02-15T05:30:46;20.85;;;12.50;;
20649;SDS011;10484;48.736;9.332;2023-02-15T05:33:13;22.80;;;12.57;;
20649;SDS011;10484;48.736;9.332;2023-02-15T05:35:39;19.27;;;12.65;;
20649;SDS011;10484;48.736;9.332;2023-02-15T05:38:05;23.87;;;11.93;;
20649;SDS011;10484;48.736;9.332;2023-02-15T05:40:31;24.73;;;13.87;;
20649;SDS011;10484;48.736;9.332;2023-02-15T05:42:56;24.00;;;13.40;;
20649;SDS011;10484;48.736;9.332;2023-02-15T05:45:22;25.10;;;12.37;;
20649;SDS011;10484;48.736;9.332;2023-02-15T05:47:48;22.20;;;12.03;;
20649;SDS011;10484;48.736;9.332;2023-02-15T05:50:13;19.87;;;10.60;;
20649;SDS011;10484;48.736;9.332;2023-02-15T05:52:39;23.40;;;13.23;;
20649;SDS011;10484;48.736;9.332;2023-02-15T05:55:05;26.70;;;13.33;;
20649;SDS011;10484;48.736;9.332;2023-02-15T05:57:33;24.45;;;13.55;;
20649;SDS011;10484;48.736;9.332;2023-02-15T05:59:59;24.20;;;14.03;;
20649;SDS011;10484;48.736;9.332;2023-02-15T06:02:25;27.07;;;13.50;;
20649;SDS011;10484;48.736;9.332;2023-02-15T06:04:50;28.50;;;13.43;;
20649;SDS011;10484;48.736;9.332;2023-02-15T06:07:16;23.93;;;13.90;;
20649;SDS011;10484;48.736;9.332;2023-02-15T06:09:41;26.40;;;14.17;;
20649;SDS011;10484;48.736;9.332;2023-02-15T06:12:07;19.63;;;12.20;;
20649;SDS011;10484;48.736;9.332;2023-02-15T06:14:32;27.97;;;13.70;;
20649;SDS011;10484;48.736;9.332;2023-02-15T06:16:58;20.93;;;13.40;;
20649;SDS011;10484;48.736;9.332;2023-02-15T06:19:23;20.40;;;11.63;;
20649;SDS011;10484;48.736;9.332;2023-02-15T06:21:49;31.37;;;14.13;;
20649;SDS011;10484;48.736;9.332;2023-02-15T06:24:15;26.83;;;13.20;;
20649;SDS011;10484;48.736;9.332;2023-02-15T06:26:40;24.63;;;14.60;;
20649;SDS011;10484;48.736;9.332;2023-02-15T06:29:06;21.37;;;12.43;;
20649;SDS011;10484;48.736;9.332;2023-02-15T06:31:32;25.50;;;12.73;;
20649;SDS011;10484;48.736;9.332;2023-02-15T06:33:57;26.10;;;15.70;;
20649;SDS011;10484;48.736;9.332;2023-02-15T06:36:29;25.30;;;13.32;;
20649;SDS011;10484;48.736;9.332;2023-02-15T06:38:55;19.95;;;12.32;;
20649;SDS011;10484;48.736;9.332;2023-02-15T06:41:21;21.57;;;13.67;;
20649;SDS011;10484;48.736;9.332;2023-02-15T06:43:47;26.85;;;13.95;;
20649;SDS011;10484;48.736;9.332;2023-02-15T06:46:13;25.77;;;13.43;;
20649;SDS011;10484;48.736;9.332;2023-02-15T06:48:38;27.50;;;12.10;;
20649;SDS011;10484;48.736;9.332;2023-02-15T06:51:04;25.00;;;12.93;;
20649;SDS011;10484;48.736;9.332;2023-02-15T06:53:30;24.83;;;13.70;;
20649;SDS011;10484;48.736;9.332;2023-02-15T06:56:05;22.20;;;12.37;;
20649;SDS011;10484;48.736;9.332;2023-02-15T06:58:33;24.75;;;12.35;;
20649;SDS011;10484;48.736;9.332;2023-02-15T07:01:06;25.35;;;12.52;;
20649;SDS011;10484;48.736;9.332;2023-02-15T07:03:32;24.40;;;13.70;;
20649;SDS011;10484;48.736;9.332;2023-02-15T07:05:59;25.92;;;13.60;;
20649;SDS011;10484;48.736;9.332;2023-02-15T07:08:28;23.95;;;12.60;;
20649;SDS011;10484;48.736;9.332;2023-02-15T07:10:54;20.33;;;12.93;;
20649;SDS011;10484;48.736;9.332;2023-02-15T07:13:41;24.65;;;13.38;;
20649;SDS011;10484;48.736;9.332;2023-02-15T07:16:07;21.83;;;14.00;;
20649;SDS011;10484;48.736;9.332;2023-02-15T07:18:34;26.80;;;14.00;;
20649;SDS011;10484;48.736;9.332;2023-02-15T07:21:00;25.33;;;13.80;;
20649;SDS011;10484;48.736;9.332;2023-02-15T07:23:25;24.50;;;12.73;;
20649;SDS011;10484;48.736;9.332;2023-02-15T07:26:00;28.17;;;15.10;;
20649;SDS011;10484;48.736;9.332;2023-02-15T07:28:26;22.75;;;12.32;;
20649;SDS011;10484;48.736;9.332;2023-02-15T07:30:53;30.63;;;14.00;;
20649;SDS011;10484;48.736;9.332;2023-02-15T07:33:18;26.60;;;14.50;;
20649;SDS011;10484;48.736;9.332;2023-02-15T07:35:56;26.75;;;14.32;;
20649;SDS011;10484;48.736;9.332;2023-02-15T07:38:24;26.30;;;14.77;;
20649;SDS011;10484;48.736;9.332;2023-02-15T07:40:51;25.17;;;13.68;;
20649;SDS011;10484;48.736;9.332;2023-02-15T07:43:17;27.23;;;16.13;;
20649;SDS011;10484;48.736;9.332;2023-02-15T07:45:42;22.80;;;14.40;;
20649;SDS011;10484;48.736;9.332;2023-02-15T07:48:08;22.87;;;13.13;;
20649;SDS011;10484;48.736;9.332;2023-02-15T07:50:34;22.80;;;14.15;;
20649;SDS011;10484;48.736;9.332;2023-02-15T07:53:03;25.10;;;14.23;;
20649;SDS011;10484;48.736;9.332;2023-02-15T07:55:29;26.00;;;15.60;;
20649;SDS011;10484;48.736;9.332;2023-02-15T07:57:55;22.20;;;12.20;;
20649;SDS011;10484;48.736;9.332;2023-02-15T08:00:21;26.70;;;14.45;;
20649;SDS011;10484;48.736;9.332;2023-02-15T08:02:50;23.85;;;14.43;;
20649;SDS011;10484;48.736;9.332;2023-02-15T08:05:37;22.92;;;13.98;;
20649;SDS011;10484;48.736;9.332;2023-02-15T08:08:08;22.95;;;14.02;;
20649;SDS011;10484;48.736;9.332;2023-02-15T08:11:01;25.20;;;14.43;;
20649;SDS011;10484;48.736;9.332;2023-02-15T08:13:48;24.27;;;13.75;;
20649;SDS011;10484;48.736;9.332;2023-02-15T08:19:14;21.95;;;13.52;;
20649;SDS011;10484;48.736;9.332;2023-02-15T08:21:43;22.58;;;13.68;;
20649;SDS011;10484;48.736;9.332;2023-02-15T08:24:14;19.02;;;12.50;;
20649;SDS011;10484;48.736;9.332;2023-02-15T08:26:41;20.65;;;12.40;;
20649;SDS011;10484;48.736;9.332;2023-02-15T08:29:09;23.25;;;14.43;;
20649;SDS011;10484;48.736;9.332;2023-02-15T08:31:35;26.57;;;14.30;;
20649;SDS011;10484;48.736;9.332;2023-02-15T08:34:02;27.35;;;16.50;;
20649;SDS011;10484;48.736;9.332;2023-02-15T08:36:29;27.57;;;13.80;;
20649;SDS011;10484;48.736;9.332;2023-02-15T08:38:57;21.73;;;14.35;;
20649;SDS011;10484;48.736;9.332;2023-02-15T08:41:27;22.92;;;13.63;;
20649;SDS011;10484;48.736;9.332;2023-02-15T08:43:57;24.23;;;13.75;;
20649;SDS011;10484;48.736;9.332;2023-02-15T08:46:25;30.15;;;17.35;;
20649;SDS011;10484;48.736;9.332;2023-02-15T08:48:53;29.30;;;16.92;;
20649;SDS011;10484;48.736;9.332;2023-02-15T08:51:20;32.72;;;15.52;;
20649;SDS011;10484;48.736;9.332;2023-02-15T08:53:54;28.17;;;16.13;;
20649;SDS011;10484;48.736;9.332;2023-02-15T08:56:22;28.17;;;16.33;;
20649;SDS011;10484;48.736;9.332;2023-02-15T08:58:49;27.08;;;14.00;;
20649;SDS011;10484;48.736;9.332;2023-02-15T09:01:22;29.73;;;17.07;;
20649;SDS011;10484;48.736;9.332;2023-02-15T09:03:51;28.38;;;14.45;;
20649;SDS011;10484;48.736;9.332;2023-02-15T09:06:21;22.98;;;13.48;;
20649;SDS011;10484;48.736;9.332;2023-02-15T09:08:47;24.50;;;13.75;;
20649;SDS011;10484;48.736;9.332;2023-02-15T09:11:14;19.05;;;13.00;;
20649;SDS011;10484;48.736;9.332;2023-02-15T09:13:48;27.65;;;14.90;;
20649;SDS011;10484;48.736;9.332;2023-02-15T09:16:18;21.95;;;12.65;;
20649;SDS011;10484;48.736;9.332;2023-02-15T09:18:45;20.83;;;14.70;;
20649;SDS011;10484;48.736;9.332;2023-02-15T09:21:12;21.42;;;13.55;;
20649;SDS011;10484;48.736;9.332;2023-02-15T09:23:40;22.63;;;13.60;;
20649;SDS011;10484;48.736;9.332;2023-02-15T09:26:08;18.48;;;13.55;;
20649;SDS011;10484;48.736;9.332;2023-02-15T09:28:35;22.92;;;14.30;;
20649;SDS011;10484;48.736;9.332;2023-02-15T09:31:12;25.10;;;15.77;;
20649;SDS011;10484;48.736;9.332;2023-02-15T09:33:46;25.83;;;13.50;;
20649;SDS011;10484;48.736;9.332;2023-02-15T09:36:17;18.02;;;11.93;;
20649;SDS011;10484;48.736;9.332;2023-02-15T09:38:44;20.98;;;12.38;;
20649;SDS011;10484;48.736;9.332;2023-02-15T09:46:55;23.50;;;12.95;;
20649;SDS011;10484;48.736;9.332;2023-02-15T09:55:01;18.67;;;12.73;;
20649;SDS011;10484;48.736;9.332;2023-02-15T09:57:53;22.55;;;12.93;;
20649;SDS011;10484;48.736;9.332;2023-02-15T10:00:45;19.20;;;11.13;;
20649;SDS011;10484;48.736;9.332;2023-02-15T10:20:32;22.38;;;13.32;;
20649;SDS011;10484;48.736;9.332;2023-02-15T10:26:19;19.15;;;12.77;;
20649;SDS011;10484;48.736;9.332;2023-02-15T10:34:17;18.00;;;11.88;;
20649;SDS011;10484;48.736;9.332;2023-02-15T10:37:17;17.25;;;13.00;;
20649;SDS011;10484;48.736;9.332;2023-02-15T10:39:52;22.30;;;11.82;;
20649;SDS011;10484;48.736;9.332;2023-02-15T10:42:23;21.40;;;11.82;;
20649;SDS011;10484;48.736;9.332;2023-02-15T10:45:23;13.90;;;10.43;;
20649;SDS011;10484;48.736;9.332;2023-02-15T11:00:47;15.33;;;9.30;;
20649;SDS011;10484;48.736;9.332;2023-02-15T11:03:40;18.63;;;11.02;;
20649;SDS011;10484;48.736;9.332;2023-02-15T11:06:23;15.57;;;10.38;;
20649;SDS011;10484;48.736;9.332;2023-02-15T11:09:02;16.15;;;9.82;;
20649;SDS011;10484;48.736;9.332;2023-02-15T11:11:34;15.25;;;10.50;;
20649;SDS011;10484;48.736;9.332;2023-02-15T11:16:57;14.18;;;9.25;;
20649;SDS011;10484;48.736;9.332;2023-02-15T11:19:34;14.23;;;10.30;;
20649;SDS011;10484;48.736;9.332;2023-02-15T11:22:04;17.27;;;9.30;;
20649;SDS011;10484;48.736;9.332;2023-02-15T11:24:32;15.25;;;10.57;;
20649;SDS011;10484;48.736;9.332;2023-02-15T11:27:05;14.85;;;10.18;;
20649;SDS011;10484;48.736;9.332;2023-02-15T11:29:46;17.38;;;10.32;;
20649;SDS011;10484;48.736;9.332;2023-02-15T11:35:10;12.73;;;10.03;;
20649;SDS011;10484;48.736;9.332;2023-02-15T11:37:48;11.73;;;9.07;;
20649;SDS011;10484;48.736;9.332;2023-02-15T11:40:24;14.25;;;9.73;;
20649;SDS011;10484;48.736;9.332;2023-02-15T11:42:53;15.97;;;8.90;;
20649;SDS011;10484;48.736;9.332;2023-02-15T11:45:28;14.83;;;9.90;;
20649;SDS011;10484;48.736;9.332;2023-02-15T11:47:56;15.10;;;10.25;;
20649;SDS011;10484;48.736;9.332;2023-02-15T11:50:24;15.57;;;9.40;;
20649;SDS011;10484;48.736;9.332;2023-02-15T11:53:04;13.80;;;9.57;;
20649;SDS011;10484;48.736;9.332;2023-02-15T11:55:36;14.93;;;10.00;;
20649;SDS011;10484;48.736;9.332;2023-02-15T12:06:51;11.90;;;8.90;;
20649;SDS011;10484;48.736;9.332;2023-02-15T12:09:30;13.53;;;9.07;;
20649;SDS011;10484;48.736;9.332;2023-02-15T12:12:35;10.90;;;8.40;;
20649;SDS011;10484;48.736;9.332;2023-02-15T12:15:02;9.30;;;7.53;;
20649;SDS011;10484;48.736;9.332;2023-02-15T12:17:33;14.20;;;7.83;;
20649;SDS011;10484;48.736;9.332;2023-02-15T12:20:04;10.87;;;8.77;;
20649;SDS011;10484;48.736;9.332;2023-02-15T12:22:53;12.40;;;8.27;;
20649;SDS011;10484;48.736;9.332;2023-02-15T12:25:33;18.30;;;10.27;;
20649;SDS011;10484;48.736;9.332;2023-02-15T12:28:03;16.63;;;10.80;;
20649;SDS011;10484;48.736;9.332;2023-02-15T12:30:45;17.97;;;12.30;;
20649;SDS011;10484;48.736;9.332;2023-02-15T12:33:25;20.57;;;14.10;;
20649;SDS011;10484;48.736;9.332;2023-02-15T12:36:04;24.20;;;12.97;;
20649;SDS011;10484;48.736;9.332;2023-02-15T12:38:37;21.03;;;13.23;;
20649;SDS011;10484;48.736;9.332;2023-02-15T12:41:04;22.23;;;14.20;;
20649;SDS011;10484;48.736;9.332;2023-02-15T12:43:46;18.53;;;13.43;;
20649;SDS011;10484;48.736;9.332;2023-02-15T12:49:04;22.07;;;14.83;;
20649;SDS011;10484;48.736;9.332;2023-02-15T12:51:46;19.90;;;13.70;;
20649;SDS011;10484;48.736;9.332;2023-02-15T12:54:32;19.77;;;14.23;;
20649;SDS011;10484;48.736;9.332;2023-02-15T12:57:12;20.70;;;14.30;;
20649;SDS011;10484;48.736;9.332;2023-02-15T12:59:47;19.53;;;14.03;;
20649;SDS011;10484;48.736;9.332;2023-02-15T13:02:19;19.53;;;14.97;;
20649;SDS011;10484;48.736;9.332;2023-02-15T13:04:48;20.80;;;13.63;;
20649;SDS011;10484;48.736;9.332;2023-02-15T13:07:15;20.57;;;14.60;;
20649;SDS011;10484;48.736;9.332;2023-02-15T13:09:41;19.30;;;13.20;;
20649;SDS011;10484;48.736;9.332;2023-02-15T13:14:53;19.37;;;13.77;;
20649;SDS011;10484;48.736;9.332;2023-02-15T13:17:21;19.20;;;13.57;;
20649;SDS011;10484;48.736;9.332;2023-02-15T13:20:04;24.40;;;13.63;;
20649;SDS011;10484;48.736;9.332;2023-02-15T13:22:41;20.90;;;12.87;;
20649;SDS011;10484;48.736;9.332;2023-02-15T13:25:11;25.17;;;14.03;;
20649;SDS011;10484;48.736;9.332;2023-02-15T13:27:50;22.00;;;14.47;;
20649;SDS011;10484;48.736;9.332;2023-02-15T13:30:30;16.43;;;13.70;;
20649;SDS011;10484;48.736;9.332;2023-02-15T13:33:09;20.80;;;13.97;;
20649;SDS011;10484;48.736;9.332;2023-02-15T13:38:40;16.13;;;12.07;;
20649;SDS011;10484;48.736;9.332;2023-02-15T13:41:19;22.23;;;14.33;;
20649;SDS011;10484;48.736;9.332;2023-02-15T13:46:58;16.17;;;12.10;;
20649;SDS011;10484;48.736;9.332;2023-02-15T13:54:48;20.03;;;12.37;;
20649;SDS011;10484;48.736;9.332;2023-02-15T13:57:55;18.90;;;15.00;;
20649;SDS011;10484;48.736;9.332;2023-02-15T14:03:20;26.17;;;13.83;;
20649;SDS011;10484;48.736;9.332;2023-02-15T14:06:14;22.57;;;13.70;;
20649;SDS011;10484;48.736;9.332;2023-02-15T14:11:55;21.83;;;13.80;;
20649;SDS011;10484;48.736;9.332;2023-02-15T14:17:47;21.30;;;14.33;;
20649;SDS011;10484;48.736;9.332;2023-02-15T14:20:37;15.27;;;12.70;;
20649;SDS011;10484;48.736;9.332;2023-02-15T14:25:55;22.83;;;13.83;;
20649;SDS011;10484;48.736;9.332;2023-02-15T14:28:28;23.20;;;13.40;;
20649;SDS011;10484;48.736;9.332;2023-02-15T14:31:08;19.90;;;14.80;;
20649;SDS011;10484;48.736;9.332;2023-02-15T14:33:37;18.87;;;14.30;;
20649;SDS011;10484;48.736;9.332;2023-02-15T14:36:06;21.10;;;14.60;;
20649;SDS011;10484;48.736;9.332;2023-02-15T14:41:04;19.37;;;14.03;;
20649;SDS011;10484;48.736;9.332;2023-02-15T14:46:34;18.73;;;15.13;;
20649;SDS011;10484;48.736;9.332;2023-02-15T14:49:16;23.73;;;15.37;;
20649;SDS011;10484;48.736;9.332;2023-02-15T14:59:45;20.97;;;15.13;;
20649;SDS011;10484;48.736;9.332;2023-02-15T15:02:47;25.80;;;15.07;;
20649;SDS011;10484;48.736;9.332;2023-02-15T15:05:21;20.63;;;14.40;;
20649;SDS011;10484;48.736;9.332;2023-02-15T15:07:53;21.33;;;14.10;;
20649;SDS011;10484;48.736;9.332;2023-02-15T15:12:52;21.93;;;14.97;;
20649;SDS011;10484;48.736;9.332;2023-02-15T15:18:00;17.73;;;13.43;;
20649;SDS011;10484;48.736;9.332;2023-02-15T15:25:55;21.17;;;15.00;;
20649;SDS011;10484;48.736;9.332;2023-02-15T15:42:33;25.93;;;15.50;;
20649;SDS011;10484;48.736;9.332;2023-02-15T15:50:56;20.10;;;14.97;;
20649;SDS011;10484;48.736;9.332;2023-02-15T15:53:25;20.50;;;15.27;;
20649;SDS011;10484;48.736;9.332;2023-02-15T15:55:58;17.07;;;13.67;;
20649;SDS011;10484;48.736;9.332;2023-02-15T15:58:28;22.80;;;15.50;;
20649;SDS011;10484;48.736;9.332;2023-02-15T16:01:01;19.10;;;14.17;;
20649;SDS011;10484;48.736;9.332;2023-02-15T16:03:30;22.90;;;14.70;;
20649;SDS011;10484;48.736;9.332;2023-02-15T16:05:56;20.00;;;15.20;;
20649;SDS011;10484;48.736;9.332;2023-02-15T16:08:25;23.60;;;15.73;;
20649;SDS011;10484;48.736;9.332;2023-02-15T16:11:10;20.60;;;14.10;;
20649;SDS011;10484;48.736;9.332;2023-02-15T16:13:41;18.97;;;13.20;;
20649;SDS011;10484;48.736;9.332;2023-02-15T16:16:08;21.47;;;15.17;;
20649;SDS011;10484;48.736;9.332;2023-02-15T16:18:37;21.17;;;14.63;;
20649;SDS011;10484;48.736;9.332;2023-02-15T16:21:12;18.53;;;14.43;;
20649;SDS011;10484;48.736;9.332;2023-02-15T16:33:09;23.83;;;16.17;;
20649;SDS011;10484;48.736;9.332;2023-02-15T16:35:54;29.20;;;16.47;;
20649;SDS011;10484;48.736;9.332;2023-02-15T16:38:46;22.30;;;13.73;;
20649;SDS011;10484;48.736;9.332;2023-02-15T16:41:22;20.40;;;14.50;;
20649;SDS011;10484;48.736;9.332;2023-02-15T16:43:50;20.00;;;14.30;;
20649;SDS011;10484;48.736;9.332;2023-02-15T16:46:30;19.03;;;13.37;;
20649;SDS011;10484;48.736;9.332;2023-02-15T16:48:59;20.80;;;15.13;;
20649;SDS011;10484;48.736;9.332;2023-02-15T16:51:29;22.53;;;13.97;;
20649;SDS011;10484;48.736;9.332;2023-02-15T16:54:00;17.80;;;11.67;;
20649;SDS011;10484;48.736;9.332;2023-02-15T16:56:31;17.73;;;13.53;;
20649;SDS011;10484;48.736;9.332;2023-02-15T16:58:58;18.90;;;13.10;;
20649;SDS011;10484;48.736;9.332;2023-02-15T17:01:25;20.23;;;14.10;;
20649;SDS011;10484;48.736;9.332;2023-02-15T17:07:12;22.83;;;12.70;;
20649;SDS011;10484;48.736;9.332;2023-02-15T17:09:50;19.47;;;14.03;;
20649;SDS011;10484;48.736;9.332;2023-02-15T17:13:09;16.93;;;12.50;;
20649;SDS011;10484;48.736;9.332;2023-02-15T17:15:24;18.73;;;13.43;;
20649;SDS011;10484;48.736;9.332;2023-02-15T17:18:21;22.50;;;13.10;;
20649;SDS011;10484;48.736;9.332;2023-02-15T17:20:47;22.07;;;14.10;;
20649;SDS011;10484;48.736;9.332;2023-02-15T17:25:47;18.50;;;12.37;;
20649;SDS011;10484;48.736;9.332;2023-02-15T17:28:17;16.90;;;12.30;;
20649;SDS011;10484;48.736;9.332;2023-02-15T17:30:45;20.47;;;13.77;;
20649;SDS011;10484;48.736;9.332;2023-02-15T17:33:22;16.63;;;10.90;;
20649;SDS011;10484;48.736;9.332;2023-02-15T17:38:58;18.70;;;12.00;;
20649;SDS011;10484;48.736;9.332;2023-02-15T17:41:30;18.00;;;11.23;;
20649;SDS011;10484;48.736;9.332;2023-02-15T17:44:00;16.57;;;11.40;;
20649;SDS011;10484;48.736;9.332;2023-02-15T17:46:28;16.47;;;10.30;;
20649;SDS011;10484;48.736;9.332;2023-02-15T17:48:59;17.73;;;11.07;;